Saint Benedict, Louisiana
Current Conditions -  °F | °C
As of 12:35 AM on Wednesday 26 Nov 2014 (Local Time) from KHDC Reporting Station
Clear Clear  
Wind Chill: 36°   Ceiling: Unl
Heat Index: 36°   Visibility: 10mi
Dew Point: 32°   Wind: 0mph
Humidity: 87%   Direction: NA
Pressure: 30.24"   Gusts: NA
Location:  30.53°N, 90.11°W
Report Text: KHDC 260635Z AUTO 00000KT 10SM CLR 02/00 A3024 RMK AO2
Loading
Personal Weather Stations






























Interactive Weather Map New forecast layout! Learn more

10-Day Weather Forecast

Advertisements
Track Severe Weather on mobile